Time;durP1;ratioP1;P1;durP2;ratioP2;P2;SDS_P1;SDS_P2;PMS_P1;PMS_P2;Temp;Humidity;BMP_temperature;BMP_pressure;BME280_temperature;BME280_humidity;BME280_pressure;Samples;Min_cycle;Max_cycle;Signal;HPM_P1;HPM_P2
2022/07/05 00:00:33;;;;;;;;;;;14.70;99.90;;;;;;5073409;28;19908;-65
2022/07/05 00:02:58;;;;;;;;;;;14.70;99.90;;;;;;5072977;28;19912;-65
2022/07/05 00:05:24;;;;;;;;;;;14.70;99.90;;;;;;5073060;28;19915;-65
2022/07/05 00:07:49;;;;;;;;;;;14.60;99.90;;;;;;5073297;28;20337;-65
2022/07/05 00:10:15;;;;;;;;;;;14.60;99.90;;;;;;5073024;28;19915;-65
2022/07/05 00:12:40;;;;;;;;;;;14.60;99.90;;;;;;5055169;28;20283;-65
2022/07/05 00:15:06;;;;;;;;;;;14.60;99.90;;;;;;5073266;28;19913;-65
2022/07/05 00:17:31;;;;;;;;;;;14.50;99.90;;;;;;5072751;28;19920;-65
2022/07/05 00:19:57;;;;;;;;;;;14.50;99.90;;;;;;5073207;28;20357;-65
2022/07/05 00:22:22;;;;;;;;;;;14.50;99.90;;;;;;5054974;28;19908;-65
2022/07/05 00:24:48;;;;;;;;;;;14.50;99.90;;;;;;5074799;28;19974;-65
2022/07/05 00:27:13;;;;;;;;;;;14.60;99.90;;;;;;5076739;28;20020;-65
2022/07/05 00:29:39;;;;;;;;;;;14.60;99.90;;;;;;5076713;28;19908;-65
2022/07/05 00:32:04;;;;;;;;;;;14.60;99.90;;;;;;5076676;28;20507;-65
2022/07/05 00:34:30;;;;;;;;;;;14.60;99.90;;;;;;5076354;28;19916;-65
2022/07/05 00:36:55;;;;;;;;;;;14.60;99.90;;;;;;5076259;28;19962;-65
2022/07/05 00:39:21;;;;;;;;;;;14.60;99.90;;;;;;5076262;28;20279;-65
2022/07/05 00:41:46;;;;;;;;;;;14.60;99.90;;;;;;5076499;28;19912;-65
2022/07/05 00:44:14;;;;;;;;;;;14.50;99.90;;;;;;5076190;28;20386;-66
2022/07/05 00:46:41;;;;;;;;;;;14.40;99.90;;;;;;5076181;28;19915;-65
2022/07/05 00:49:07;;;;;;;;;;;14.30;99.90;;;;;;5076096;28;19920;-65
2022/07/05 00:51:34;;;;;;;;;;;14.30;99.90;;;;;;5076151;28;19908;-65
2022/07/05 00:54:00;;;;;;;;;;;14.20;99.90;;;;;;5058105;28;19908;-64
2022/07/05 00:56:25;;;;;;;;;;;14.20;99.90;;;;;;5076185;28;20290;-65
2022/07/05 00:58:51;;;;;;;;;;;14.20;99.90;;;;;;5076184;28;19953;-65
2022/07/05 01:01:17;;;;;;;;;;;14.10;99.90;;;;;;5075831;28;20015;-64
2022/07/05 01:03:43;;;;;;;;;;;14.10;99.90;;;;;;5076091;28;20274;-65
2022/07/05 01:06:10;;;;;;;;;;;14.10;99.90;;;;;;5075692;28;19909;-65
2022/07/05 01:08:37;;;;;;;;;;;14.10;99.90;;;;;;5076046;28;20002;-65
2022/07/05 01:11:02;;;;;;;;;;;14.10;99.90;;;;;;5075735;28;19908;-65
2022/07/05 01:13:28;;;;;;;;;;;14.10;99.90;;;;;;5075896;28;19909;-64
2022/07/05 01:15:55;;;;;;;;;;;14.10;99.90;;;;;;5075455;28;19909;-66
2022/07/05 01:18:21;;;;;;;;;;;14.20;99.90;;;;;;5075504;28;19908;-66
2022/07/05 01:20:48;;;;;;;;;;;14.20;99.90;;;;;;5075463;28;20157;-66
2022/07/05 01:23:14;;;;;;;;;;;14.20;99.90;;;;;;5075746;28;20336;-66
2022/07/05 01:25:40;;;;;;;;;;;14.30;99.90;;;;;;5075509;28;19963;-66
2022/07/05 01:28:05;;;;;;;;;;;14.30;99.90;;;;;;5075341;28;19963;-66
2022/07/05 01:30:32;;;;;;;;;;;14.30;99.90;;;;;;5057401;28;19909;-66
2022/07/05 01:32:58;;;;;;;;;;;14.30;99.90;;;;;;5075290;28;20286;-66
2022/07/05 01:35:23;;;;;;;;;;;14.30;99.90;;;;;;5075410;28;19919;-66
2022/07/05 01:37:50;;;;;;;;;;;14.30;99.90;;;;;;5075141;28;19912;-66
2022/07/05 01:40:16;;;;;;;;;;;14.40;99.90;;;;;;5075154;28;19909;-66
2022/07/05 01:42:41;;;;;;;;;;;14.40;99.90;;;;;;5075363;28;19908;-66
2022/07/05 01:45:07;;;;;;;;;;;14.50;99.90;;;;;;5075035;28;20396;-66
2022/07/05 01:47:35;;;;;;;;;;;14.60;99.90;;;;;;5074985;28;19916;-66
2022/07/05 01:50:02;;;;;;;;;;;14.60;99.90;;;;;;5075132;28;20363;-66
2022/07/05 01:52:29;;;;;;;;;;;14.70;99.90;;;;;;5074775;28;19908;-67
2022/07/05 01:54:55;;;;;;;;;;;14.70;99.90;;;;;;5075102;28;20422;-67
2022/07/05 01:57:20;;;;;;;;;;;14.80;99.90;;;;;;5074947;28;20003;-67
2022/07/05 01:59:46;;;;;;;;;;;14.80;99.90;;;;;;5056781;28;20117;-67
2022/07/05 02:02:11;;;;;;;;;;;14.70;99.90;;;;;;5074657;28;19995;-66
2022/07/05 02:04:37;;;;;;;;;;;14.70;99.90;;;;;;5056808;28;19913;-67
2022/07/05 02:07:05;;;;;;;;;;;14.60;99.90;;;;;;5074865;28;19936;-67
2022/07/05 02:09:30;;;;;;;;;;;14.50;99.90;;;;;;5074801;28;19931;-67
2022/07/05 02:11:56;;;;;;;;;;;14.50;99.90;;;;;;5074531;28;19955;-67
2022/07/05 02:14:21;;;;;;;;;;;14.50;99.90;;;;;;5074425;28;19909;-67
2022/07/05 02:16:47;;;;;;;;;;;14.40;99.90;;;;;;5074123;28;19979;-67
2022/07/05 02:19:13;;;;;;;;;;;14.40;99.90;;;;;;5074624;28;20321;-67
2022/07/05 02:21:38;;;;;;;;;;;14.30;99.90;;;;;;5074575;28;19908;-67
2022/07/05 02:24:04;;;;;;;;;;;14.30;99.90;;;;;;5074538;28;20295;-67
2022/07/05 02:26:29;;;;;;;;;;;14.20;99.90;;;;;;5074220;28;19908;-67
2022/07/05 02:28:55;;;;;;;;;;;14.20;99.90;;;;;;5074411;28;19912;-67
2022/07/05 02:31:20;;;;;;;;;;;14.10;99.90;;;;;;5074059;28;20378;-67
2022/07/05 02:33:46;;;;;;;;;;;14.10;99.90;;;;;;5074344;28;19912;-67
2022/07/05 02:36:12;;;;;;;;;;;14.20;99.90;;;;;;5074137;28;19909;-67
2022/07/05 02:38:38;;;;;;;;;;;14.20;99.90;;;;;;5074264;28;19963;-67
2022/07/05 02:41:06;;;;;;;;;;;14.20;99.90;;;;;;5073974;28;20025;-67
2022/07/05 02:43:32;;;;;;;;;;;14.20;99.90;;;;;;5074166;28;19916;-67
2022/07/05 02:45:57;;;;;;;;;;;14.10;99.90;;;;;;5073910;28;19958;-67
2022/07/05 02:48:23;;;;;;;;;;;14.00;99.90;;;;;;5073469;28;19956;-67
2022/07/05 02:50:48;;;;;;;;;;;;;;;;;;5074089;28;19908;-66
2022/07/05 02:53:14;;;;;;;;;;;13.80;99.90;;;;;;5073827;28;19905;-67
2022/07/05 02:55:39;;;;;;;;;;;13.80;99.90;;;;;;5074061;28;19935;-67
2022/07/05 02:58:05;;;;;;;;;;;13.70;99.90;;;;;;5073669;28;19934;-67
2022/07/05 03:00:30;;;;;;;;;;;13.70;99.90;;;;;;5055750;28;19908;-67
2022/07/05 03:02:56;;;;;;;;;;;13.70;99.90;;;;;;5073718;28;20046;-67
2022/07/05 03:05:21;;;;;;;;;;;13.70;99.90;;;;;;5073599;28;19908;-67
2022/07/05 03:07:47;;;;;;;;;;;13.70;99.90;;;;;;5073666;28;19943;-67
2022/07/05 03:10:12;;;;;;;;;;;13.70;99.90;;;;;;5073884;28;20374;-67
2022/07/05 03:12:38;;;;;;;;;;;13.70;99.90;;;;;;5073866;28;19915;-67
2022/07/05 03:15:03;;;;;;;;;;;13.70;99.90;;;;;;5055967;28;19999;-67
2022/07/05 03:17:29;;;;;;;;;;;13.60;99.90;;;;;;5073303;28;20306;-67
2022/07/05 03:19:54;;;;;;;;;;;13.60;99.90;;;;;;5055532;28;19995;-66
2022/07/05 03:22:20;;;;;;;;;;;13.70;99.90;;;;;;5073748;28;19908;-66
2022/07/05 03:24:45;;;;;;;;;;;13.70;99.90;;;;;;5055530;28;19995;-66
2022/07/05 03:27:11;;;;;;;;;;;13.70;99.90;;;;;;5073482;28;19909;-66
2022/07/05 03:29:36;;;;;;;;;;;13.70;99.90;;;;;;5055507;28;19912;-66
2022/07/05 03:32:02;;;;;;;;;;;13.80;99.90;;;;;;5073382;28;20077;-66
2022/07/05 03:34:28;;;;;;;;;;;13.80;99.90;;;;;;5073411;28;19909;-66
2022/07/05 03:36:53;;;;;;;;;;;13.80;99.90;;;;;;5073508;28;20000;-66
2022/07/05 03:39:18;;;;;;;;;;;13.80;99.90;;;;;;5073413;28;19958;-66
2022/07/05 03:41:44;;;;;;;;;;;13.80;99.90;;;;;;5073356;28;19947;-66
2022/07/05 03:44:09;;;;;;;;;;;13.80;99.90;;;;;;5055437;28;20021;-67
2022/07/05 03:46:35;;;;;;;;;;;13.80;99.90;;;;;;5073579;28;19912;-67
2022/07/05 03:49:00;;;;;;;;;;;13.90;99.90;;;;;;5073477;28;19916;-67
2022/07/05 03:51:26;;;;;;;;;;;13.90;99.90;;;;;;5073260;28;19913;-67
2022/07/05 03:53:51;;;;;;;;;;;14.00;99.90;;;;;;5073223;28;19991;-67
2022/07/05 03:56:19;;;;;;;;;;;14.10;99.90;;;;;;5073363;28;19908;-67
2022/07/05 03:58:49;;;;;;;;;;;14.10;99.90;;;;;;5055663;28;19952;-67
2022/07/05 04:01:14;;;;;;;;;;;14.10;99.90;;;;;;5077253;28;19909;-67
2022/07/05 04:03:40;;;;;;;;;;;14.10;99.90;;;;;;5076957;28;19916;-67
2022/07/05 04:06:05;;;;;;;;;;;14.10;99.90;;;;;;5076900;28;19958;-67
2022/07/05 04:08:31;;;;;;;;;;;14.10;99.90;;;;;;5076834;28;19953;-67
2022/07/05 04:10:56;;;;;;;;;;;14.20;99.90;;;;;;5077069;28;20076;-67
2022/07/05 04:13:22;;;;;;;;;;;14.30;99.90;;;;;;5076789;28;19915;-67
2022/07/05 04:15:48;;;;;;;;;;;14.50;99.90;;;;;;5041913;28;19931;-67
2022/07/05 04:18:13;;;;;;;;;;;14.60;99.90;;;;;;5076887;28;19997;-67
2022/07/05 04:20:39;;;;;;;;;;;14.70;99.90;;;;;;5076857;28;19915;-67
2022/07/05 04:23:04;;;;;;;;;;;14.70;99.90;;;;;;5076598;28;20290;-67
2022/07/05 04:25:30;;;;;;;;;;;14.80;99.90;;;;;;5076506;28;19909;-67
2022/07/05 04:27:56;;;;;;;;;;;14.80;99.90;;;;;;5076511;28;19908;-67
2022/07/05 04:30:22;;;;;;;;;;;15.00;99.90;;;;;;5076727;28;19908;-67
2022/07/05 04:32:48;;;;;;;;;;;15.20;99.90;;;;;;5076395;28;19908;-67
2022/07/05 04:35:13;;;;;;;;;;;15.50;99.90;;;;;;5076620;28;19909;-67
2022/07/05 04:37:39;;;;;;;;;;;15.70;99.90;;;;;;5076520;28;19919;-67
2022/07/05 04:40:06;;;;;;;;;;;15.90;99.90;;;;;;5076576;28;19909;-67
2022/07/05 04:42:32;;;;;;;;;;;;;;;;;;5076234;28;19991;-67
2022/07/05 04:44:58;;;;;;;;;;;;;;;;;;5076142;28;19989;-67
2022/07/05 04:47:25;;;;;;;;;;;;;;;;;;5076138;28;19908;-67
2022/07/05 04:49:51;;;;;;;;;;;;;;;;;;5076392;28;19909;-67
2022/07/05 04:52:17;;;;;;;;;;;;;;;;;;5075978;28;20000;-67
2022/07/05 04:54:43;;;;;;;;;;;;;;;;;;5076246;28;19909;-67
2022/07/05 04:57:09;;;;;;;;;;;;;;;;;;5076137;28;19912;-67
2022/07/05 04:59:34;;;;;;;;;;;;;;;;;;5075896;28;20361;-67
2022/07/05 05:02:00;;;;;;;;;;;;;;;;;;5076135;28;20025;-67
2022/07/05 05:04:26;;;;;;;;;;;;;;;;;;5076094;28;19908;-67
2022/07/05 05:06:52;;;;;;;;;;;;;;;;;;5075807;28;19952;-67
2022/07/05 05:09:18;;;;;;;;;;;;;;;;;;5075707;28;20413;-67
2022/07/05 05:11:44;;;;;;;;;;;;;;;;;;5075397;28;19915;-67
2022/07/05 05:14:09;;;;;;;;;;;18.70;99.90;;;;;;5075891;28;19908;-67
2022/07/05 05:16:35;;;;;;;;;;;19.00;99.90;;;;;;5075499;28;19920;-67
2022/07/05 05:19:00;;;;;;;;;;;19.40;99.90;;;;;;5075801;28;19909;-67
2022/07/05 05:21:26;;;;;;;;;;;19.50;99.90;;;;;;5075470;28;20375;-67
2022/07/05 05:23:51;;;;;;;;;;;19.80;99.90;;;;;;5075482;28;20070;-67
2022/07/05 05:26:17;;;;;;;;;;;20.40;99.90;;;;;;5075479;28;19912;-67
2022/07/05 05:28:42;;;;;;;;;;;21.40;99.90;;;;;;5075640;28;19912;-67
2022/07/05 05:31:08;;;;;;;;;;;22.50;99.90;;;;;;5075292;28;19940;-68
2022/07/05 05:33:33;;;;;;;;;;;22.40;99.90;;;;;;5075570;28;19937;-67
2022/07/05 05:36:00;;;;;;;;;;;22.90;99.90;;;;;;5075210;28;19999;-68
2022/07/05 05:38:25;;;;;;;;;;;24.70;99.90;;;;;;5075129;28;19965;-67
2022/07/05 05:40:51;;;;;;;;;;;24.90;98.00;;;;;;5075362;28;20298;-67
2022/07/05 05:43:16;;;;;;;;;;;24.80;96.10;;;;;;5075363;28;20011;-66
2022/07/05 05:45:41;;;;;;;;;;;25.20;95.70;;;;;;5075234;28;19925;-66
2022/07/05 05:48:07;;;;;;;;;;;25.10;96.30;;;;;;5074874;28;19913;-66
2022/07/05 05:50:34;;;;;;;;;;;25.90;92.10;;;;;;5074854;28;19908;-67
2022/07/05 05:53:00;;;;;;;;;;;25.90;92.30;;;;;;5075082;28;19916;-67
2022/07/05 05:55:26;;;;;;;;;;;24.10;94.90;;;;;;5075122;28;19908;-66
2022/07/05 05:57:52;;;;;;;;;;;23.70;95.50;;;;;;5074982;28;20362;-66
2022/07/05 06:00:18;;;;;;;;;;;23.20;97.70;;;;;;5074761;28;19909;-67
2022/07/05 06:02:45;;;;;;;;;;;23.60;97.90;;;;;;5074760;28;19908;-67
2022/07/05 06:05:10;;;;;;;;;;;24.20;95.90;;;;;;5074904;28;20298;-67
2022/07/05 06:07:44;;;;;;;;;;;25.20;94.40;;;;;;5074791;28;19914;-67
2022/07/05 06:10:09;;;;;;;;;;;26.20;92.50;;;;;;5075572;28;19920;-67
2022/07/05 06:12:34;;;;;;;;;;;26.60;90.80;;;;;;5076358;28;19953;-67
2022/07/05 06:15:00;;;;;;;;;;;27.00;88.00;;;;;;5076151;28;19996;-67
2022/07/05 06:17:25;;;;;;;;;;;27.20;86.50;;;;;;5076983;28;19920;-68
2022/07/05 06:19:51;;;;;;;;;;;27.80;83.70;;;;;;5076186;28;20359;-67
2022/07/05 06:22:16;;;;;;;;;;;27.80;83.90;;;;;;5075296;28;19924;-68
2022/07/05 06:24:42;;;;;;;;;;;28.50;80.00;;;;;;5068772;28;20387;-68
2022/07/05 06:27:07;;;;;;;;;;;28.40;77.90;;;;;;5073520;28;19954;-68
2022/07/05 06:29:33;;;;;;;;;;;28.40;78.70;;;;;;5074179;28;19908;-68
2022/07/05 06:31:59;;;;;;;;;;;27.50;78.60;;;;;;5074361;28;19908;-68
2022/07/05 06:34:25;;;;;;;;;;;27.40;78.40;;;;;;5074370;28;19935;-68
2022/07/05 06:36:50;;;;;;;;;;;28.20;77.60;;;;;;5073983;28;20286;-68
2022/07/05 06:39:16;;;;;;;;;;;27.90;76.10;;;;;;5074268;28;19915;-68
2022/07/05 06:41:41;;;;;;;;;;;28.10;74.50;;;;;;5055921;28;20371;-68
2022/07/05 06:44:07;;;;;;;;;;;28.60;72.30;;;;;;5056293;28;19913;-66
2022/07/05 06:46:32;;;;;;;;;;;28.10;71.80;;;;;;5074083;28;20359;-66
2022/07/05 06:48:58;;;;;;;;;;;28.30;72.20;;;;;;5074066;28;19908;-66
2022/07/05 06:51:23;;;;;;;;;;;28.10;72.30;;;;;;5073864;28;19909;-65
2022/07/05 06:53:49;;;;;;;;;;;28.00;72.40;;;;;;5073875;28;19908;-66
2022/07/05 06:56:14;;;;;;;;;;;27.80;71.50;;;;;;5073712;28;20007;-66
2022/07/05 06:58:40;;;;;;;;;;;28.40;71.20;;;;;;5070329;28;19916;-66
2022/07/05 07:01:06;;;;;;;;;;;28.70;70.00;;;;;;5053776;28;19915;-66
2022/07/05 07:03:31;;;;;;;;;;;28.20;67.30;;;;;;5053360;28;19916;-66
2022/07/05 07:05:57;;;;;;;;;;;27.60;70.10;;;;;;5054156;28;19916;-66
2022/07/05 07:11:08;;;;;;;;;;;26.90;68.60;;;;;;5073303;28;19958;-65
2022/07/05 07:13:33;;;;;;;;;;;27.30;68.30;;;;;;5073481;28;19912;-65
2022/07/05 07:15:59;;;;;;;;;;;27.50;68.40;;;;;;5072448;28;20018;-64
2022/07/05 07:18:24;;;;;;;;;;;27.50;65.50;;;;;;5072763;28;20325;-67
2022/07/05 07:20:50;;;;;;;;;;;27.20;67.20;;;;;;5073440;28;20000;-66
2022/07/05 07:23:16;;;;;;;;;;;27.80;66.40;;;;;;5073309;28;19915;-65
2022/07/05 07:25:42;;;;;;;;;;;28.20;68.00;;;;;;5070933;28;19913;-64
2022/07/05 07:28:07;;;;;;;;;;;28.00;66.70;;;;;;5067690;28;19962;-65
2022/07/05 07:30:33;;;;;;;;;;;28.10;67.20;;;;;;5072290;28;19919;-64
2022/07/05 07:32:59;;;;;;;;;;;28.70;66.90;;;;;;5072795;28;19930;-63
2022/07/05 07:35:24;;;;;;;;;;;28.70;65.30;;;;;;5075968;28;20359;-65
2022/07/05 07:37:50;;;;;;;;;;;28.70;65.00;;;;;;5077406;28;19912;-64
2022/07/05 07:40:15;;;;;;;;;;;29.40;66.40;;;;;;5077366;28;20381;-64
2022/07/05 07:42:41;;;;;;;;;;;29.10;64.30;;;;;;5076211;28;19913;-65
2022/07/05 07:45:07;;;;;;;;;;;29.60;63.10;;;;;;5077475;28;19913;-65
2022/07/05 07:47:33;;;;;;;;;;;29.30;64.60;;;;;;5077114;28;20367;-64
2022/07/05 07:49:59;;;;;;;;;;;28.40;66.80;;;;;;5058278;28;19944;-64
2022/07/05 07:52:24;;;;;;;;;;;28.10;63.90;;;;;;5077306;28;20359;-64
2022/07/05 07:54:50;;;;;;;;;;;27.40;66.60;;;;;;5077074;28;20355;-64
2022/07/05 07:57:15;;;;;;;;;;;28.10;63.90;;;;;;5076783;28;20279;-64
2022/07/05 07:59:41;;;;;;;;;;;28.30;63.40;;;;;;5077247;28;19916;-67
2022/07/05 08:02:06;;;;;;;;;;;27.10;66.10;;;;;;5076992;28;19920;-67
2022/07/05 08:04:32;;;;;;;;;;;27.40;67.30;;;;;;5076761;28;20389;-66
2022/07/05 08:06:58;;;;;;;;;;;27.60;65.00;;;;;;5076953;28;19909;-65
2022/07/05 08:09:23;;;;;;;;;;;26.90;68.00;;;;;;5072404;28;20641;-66
2022/07/05 08:11:49;;;;;;;;;;;26.90;68.80;;;;;;5073362;28;19909;-65
2022/07/05 08:14:15;;;;;;;;;;;25.10;71.40;;;;;;5076478;28;19958;-65
2022/07/05 08:16:41;;;;;;;;;;;24.50;74.30;;;;;;5076520;28;19920;-64
2022/07/05 08:21:51;;;;;;;;;;;24.80;74.70;;;;;;5067927;28;19912;-64
2022/07/05 08:24:17;;;;;;;;;;;25.30;73.90;;;;;;5056491;28;20414;-64
2022/07/05 08:26:43;;;;;;;;;;;25.70;70.80;;;;;;5057247;28;19909;-65
2022/07/05 08:29:09;;;;;;;;;;;25.50;72.70;;;;;;5041670;28;19909;-64
2022/07/05 08:31:37;;;;;;;;;;;24.60;73.40;;;;;;5074921;28;19917;-64
2022/07/05 08:34:03;;;;;;;;;;;23.70;77.50;;;;;;5076591;28;20412;-64
2022/07/05 08:36:28;;;;;;;;;;;23.80;77.70;;;;;;5047896;28;19913;-64
2022/07/05 08:38:54;;;;;;;;;;;23.20;78.70;;;;;;5076148;28;19915;-64
2022/07/05 08:41:20;;;;;;;;;;;22.50;80.50;;;;;;5076238;28;19915;-65
2022/07/05 08:43:47;;;;;;;;;;;23.40;82.10;;;;;;5076112;28;19978;-64
2022/07/05 08:46:13;;;;;;;;;;;24.10;78.40;;;;;;5075560;28;20354;-65
2022/07/05 08:48:43;;;;;;;;;;;24.10;78.20;;;;;;5075928;28;20187;-64
2022/07/05 08:51:13;;;;;;;;;;;24.60;77.70;;;;;;5076173;28;20401;-65
2022/07/05 08:53:40;;;;;;;;;;;25.80;73.50;;;;;;5057926;28;19908;-65
2022/07/05 08:56:06;;;;;;;;;;;27.10;70.90;;;;;;5076105;28;19951;-65
2022/07/05 08:58:32;;;;;;;;;;;26.20;68.30;;;;;;5075979;28;20381;-64
2022/07/05 09:00:58;;;;;;;;;;;24.90;74.20;;;;;;5075800;28;19909;-65
2022/07/05 09:03:25;;;;;;;;;;;26.00;74.70;;;;;;5075793;28;19908;-65
2022/07/05 09:05:54;;;;;;;;;;;27.40;70.30;;;;;;5075958;28;19909;-65
2022/07/05 09:08:20;;;;;;;;;;;28.50;65.10;;;;;;5057684;28;19908;-65
2022/07/05 09:10:46;;;;;;;;;;;27.60;64.80;;;;;;5075932;28;19958;-65
2022/07/05 09:13:11;;;;;;;;;;;26.80;67.40;;;;;;5075835;28;19915;-65
2022/07/05 09:15:39;;;;;;;;;;;27.30;67.30;;;;;;5075791;28;20007;-65
2022/07/05 09:18:04;;;;;;;;;;;27.40;66.20;;;;;;5075168;28;19920;-65
2022/07/05 09:20:30;;;;;;;;;;;27.70;65.70;;;;;;5075721;28;19914;-66
2022/07/05 09:22:56;;;;;;;;;;;26.70;66.70;;;;;;5075377;28;20283;-64
2022/07/05 09:25:27;;;;;;;;;;;25.60;68.60;;;;;;5075296;28;19931;-68
2022/07/05 09:28:04;;;;;;;;;;;24.20;73.10;;;;;;5075243;28;19913;-68
2022/07/05 09:30:36;;;;;;;;;;;24.60;74.50;;;;;;5058034;28;19954;-68
2022/07/05 09:33:06;;;;;;;;;;;25.80;72.30;;;;;;5062017;28;20382;-68
2022/07/05 09:35:33;;;;;;;;;;;27.20;68.50;;;;;;5067148;28;19942;-67
2022/07/05 09:37:58;;;;;;;;;;;27.40;66.90;;;;;;5057491;28;20312;-68
2022/07/05 09:40:24;;;;;;;;;;;28.50;65.30;;;;;;5075091;28;20000;-67
2022/07/05 09:42:50;;;;;;;;;;;29.70;63.30;;;;;;5057318;28;19955;-67
2022/07/05 09:45:23;;;;;;;;;;;28.30;63.20;;;;;;5075240;28;19958;-67
2022/07/05 09:47:48;;;;;;;;;;;27.80;66.30;;;;;;5074879;28;19916;-67
2022/07/05 09:50:14;;;;;;;;;;;27.50;64.70;;;;;;5074954;28;19909;-67
2022/07/05 09:52:41;;;;;;;;;;;27.10;63.20;;;;;;5074732;28;19915;-67
2022/07/05 09:55:18;;;;;;;;;;;28.20;64.80;;;;;;5074913;28;19909;-68
2022/07/05 09:57:46;;;;;;;;;;;28.40;63.00;;;;;;5073800;28;19912;-68
2022/07/05 10:00:19;;;;;;;;;;;27.80;63.40;;;;;;5074800;28;20007;-67
2022/07/05 10:02:48;;;;;;;;;;;26.60;65.20;;;;;;5074465;28;19951;-67
2022/07/05 10:05:15;;;;;;;;;;;25.70;67.90;;;;;;5074409;28;19944;-67
2022/07/05 10:07:44;;;;;;;;;;;24.90;68.10;;;;;;5072970;28;19999;-68
2022/07/05 10:10:10;;;;;;;;;;;24.20;71.40;;;;;;5074634;28;19909;-67
2022/07/05 10:12:36;;;;;;;;;;;23.90;72.10;;;;;;5067300;28;19913;-68
2022/07/05 10:15:02;;;;;;;;;;;23.80;72.70;;;;;;5065731;28;19958;-69
2022/07/05 10:17:30;;;;;;;;;;;23.80;72.90;;;;;;5074124;28;20339;-69
2022/07/05 10:19:56;;;;;;;;;;;24.10;72.70;;;;;;5074118;28;19908;-68
2022/07/05 10:22:22;;;;;;;;;;;23.70;71.60;;;;;;5055950;28;19915;-69
2022/07/05 10:24:48;;;;;;;;;;;23.70;72.10;;;;;;5056119;28;20355;-68
2022/07/05 10:27:14;;;;;;;;;;;23.60;71.50;;;;;;5074401;28;20286;-68
2022/07/05 10:29:40;;;;;;;;;;;24.00;69.60;;;;;;5074058;28;20391;-68
2022/07/05 10:32:08;;;;;;;;;;;24.10;69.60;;;;;;5071507;28;19920;-68
2022/07/05 10:34:35;;;;;;;;;;;24.30;69.00;;;;;;5063121;28;19966;-68
2022/07/05 10:37:00;;;;;;;;;;;25.50;66.20;;;;;;5073773;28;19957;-68
2022/07/05 10:39:26;;;;;;;;;;;25.50;64.40;;;;;;5065977;28;19912;-68
2022/07/05 10:41:52;;;;;;;;;;;26.30;62.90;;;;;;5070260;28;19908;-67
2022/07/05 10:44:26;;;;;;;;;;;26.10;63.60;;;;;;5055945;28;20374;-67
2022/07/05 10:46:52;;;;;;;;;;;26.00;64.80;;;;;;5074004;28;19998;-68
2022/07/05 10:49:18;;;;;;;;;;;26.40;65.30;;;;;;5065018;28;19952;-68
2022/07/05 10:51:43;;;;;;;;;;;26.20;64.20;;;;;;5072850;28;19909;-67
2022/07/05 10:54:09;;;;;;;;;;;26.00;65.30;;;;;;5065778;28;20387;-68
2022/07/05 10:56:36;;;;;;;;;;;25.90;62.50;;;;;;5073486;28;19944;-67
2022/07/05 10:59:06;;;;;;;;;;;25.30;64.10;;;;;;5073815;28;19909;-67
2022/07/05 11:01:32;;;;;;;;;;;25.00;64.80;;;;;;5073543;28;19971;-67
2022/07/05 11:09:19;;;;;;;;;;;25.40;65.70;;;;;;5070883;28;19913;-68
2022/07/05 11:11:46;;;;;;;;;;;26.10;63.60;;;;;;5071010;28;19913;-67
2022/07/05 11:17:16;;;;;;;;;;;26.20;63.20;;;;;;5070875;28;19913;-67
2022/07/05 11:20:01;;;;;;;;;;;26.30;63.40;;;;;;5070702;28;19913;-67
2022/07/05 11:22:27;;;;;;;;;;;26.30;61.80;;;;;;5070209;28;20334;-67
2022/07/05 11:24:54;;;;;;;;;;;26.80;62.10;;;;;;5070232;28;19908;-67
2022/07/05 11:27:19;;;;;;;;;;;26.70;62.00;;;;;;5067466;28;20402;-67
2022/07/05 11:29:49;;;;;;;;;;;25.60;62.60;;;;;;5070103;28;19919;-67
2022/07/05 11:32:23;;;;;;;;;;;25.00;66.10;;;;;;5070456;28;19944;-67
2022/07/05 11:34:50;;;;;;;;;;;24.40;66.70;;;;;;5070724;28;19923;-67
2022/07/05 11:37:18;;;;;;;;;;;24.20;68.10;;;;;;5070742;28;19909;-67
2022/07/05 11:39:45;;;;;;;;;;;24.20;67.70;;;;;;5070634;28;19915;-67
2022/07/05 11:42:18;;;;;;;;;;;24.90;66.60;;;;;;5070603;28;20307;-67
2022/07/05 11:44:45;;;;;;;;;;;25.90;64.10;;;;;;5070610;28;20389;-67
2022/07/05 11:47:13;;;;;;;;;;;25.90;59.80;;;;;;5070208;28;19909;-67
2022/07/05 11:49:38;;;;;;;;;;;26.00;60.70;;;;;;5069952;28;19967;-67
2022/07/05 11:52:07;;;;;;;;;;;25.60;63.30;;;;;;5062506;28;19916;-67
2022/07/05 11:54:33;;;;;;;;;;;26.00;62.80;;;;;;5061535;28;19909;-66
2022/07/05 11:56:59;;;;;;;;;;;25.80;61.80;;;;;;5070143;28;20426;-67
2022/07/05 11:59:25;;;;;;;;;;;24.90;63.30;;;;;;5069903;28;19930;-66
2022/07/05 12:01:51;;;;;;;;;;;24.60;65.70;;;;;;5063383;28;20040;-67
2022/07/05 12:04:25;;;;;;;;;;;24.90;67.80;;;;;;5059020;28;20057;-67
2022/07/05 12:06:50;;;;;;;;;;;25.90;64.90;;;;;;5053295;28;20008;-67
2022/07/05 12:09:21;;;;;;;;;;;25.90;61.50;;;;;;5050064;28;19975;-67
2022/07/05 12:14:36;;;;;;;;;;;25.80;62.40;;;;;;5070196;28;20339;-67
2022/07/05 12:17:10;;;;;;;;;;;24.90;64.50;;;;;;5089055;28;20037;-67
2022/07/05 12:19:36;;;;;;;;;;;24.90;65.50;;;;;;5090171;28;20271;-68
2022/07/05 12:22:01;;;;;;;;;;;25.30;64.10;;;;;;5089815;28;19915;-68
2022/07/05 12:24:27;;;;;;;;;;;24.90;65.50;;;;;;5090017;28;19957;-68
2022/07/05 12:26:52;;;;;;;;;;;25.20;66.30;;;;;;5084335;28;20041;-68
2022/07/05 12:29:18;;;;;;;;;;;25.30;64.60;;;;;;5076434;28;19908;-65
2022/07/05 12:32:04;;;;;;;;;;;25.00;65.70;;;;;;5076390;28;19908;-65
2022/07/05 12:34:30;;;;;;;;;;;25.30;62.80;;;;;;5075987;28;20290;-65
2022/07/05 12:36:56;;;;;;;;;;;24.90;64.00;;;;;;5075993;28;20033;-68
2022/07/05 12:39:22;;;;;;;;;;;25.60;63.70;;;;;;5076317;28;19957;-66
2022/07/05 12:41:47;;;;;;;;;;;25.70;63.30;;;;;;5046521;28;19913;-67
2022/07/05 12:44:17;;;;;;;;;;;26.20;62.90;;;;;;5070309;28;20029;-66
2022/07/05 12:46:44;;;;;;;;;;;26.50;62.40;;;;;;5075797;28;19915;-68
2022/07/05 12:49:10;;;;;;;;;;;26.30;62.80;;;;;;5058440;28;20009;-67
2022/07/05 12:51:37;;;;;;;;;;;26.10;64.20;;;;;;5075808;28;20355;-68
2022/07/05 12:59:36;;;;;;;;;;;26.00;64.60;;;;;;5074423;28;19915;-67
2022/07/05 13:02:02;;;;;;;;;;;25.90;65.20;;;;;;5075850;28;19908;-67
2022/07/05 13:04:28;;;;;;;;;;;25.70;65.40;;;;;;5057931;28;19908;-67
2022/07/05 13:06:55;;;;;;;;;;;26.00;65.60;;;;;;5074114;28;19916;-69
2022/07/05 13:12:14;;;;;;;;;;;26.20;63.70;;;;;;5091074;27;19919;-68
2022/07/05 13:14:41;;;;;;;;;;;26.30;63.10;;;;;;5091309;28;20378;-68
2022/07/05 13:17:07;;;;;;;;;;;26.20;63.00;;;;;;5124167;28;19935;-68
2022/07/05 13:19:33;;;;;;;;;;;25.80;64.40;;;;;;5091203;28;19909;-68
2022/07/05 13:21:59;;;;;;;;;;;25.80;65.00;;;;;;5090854;28;20282;-67
2022/07/05 13:24:24;;;;;;;;;;;25.00;65.10;;;;;;5090834;28;19908;-68
2022/07/05 13:26:49;;;;;;;;;;;25.10;67.40;;;;;;5123686;28;19908;-68
2022/07/05 13:29:15;;;;;;;;;;;25.30;65.30;;;;;;5090736;28;20363;-68
2022/07/05 13:31:41;;;;;;;;;;;25.60;64.40;;;;;;5089194;28;19965;-68
2022/07/05 13:34:07;;;;;;;;;;;26.10;62.30;;;;;;5090694;28;19913;-68
2022/07/05 13:36:32;;;;;;;;;;;25.70;60.90;;;;;;5090909;28;19908;-69
2022/07/05 13:38:58;;;;;;;;;;;25.60;60.80;;;;;;5090762;28;19916;-68
2022/07/05 13:41:23;;;;;;;;;;;25.10;61.70;;;;;;5123411;28;20290;-68
2022/07/05 13:43:49;;;;;;;;;;;25.20;61.40;;;;;;5090406;28;19908;-68
2022/07/05 13:46:14;;;;;;;;;;;25.10;62.30;;;;;;5090411;28;19908;-68
2022/07/05 13:48:40;;;;;;;;;;;25.30;63.30;;;;;;5090619;28;19909;-68
2022/07/05 13:51:06;;;;;;;;;;;25.20;64.80;;;;;;5090238;28;20293;-68
2022/07/05 13:53:31;;;;;;;;;;;25.20;65.70;;;;;;5090392;28;19908;-68
2022/07/05 13:55:57;;;;;;;;;;;24.80;66.80;;;;;;5090515;28;20033;-68
2022/07/05 13:58:22;;;;;;;;;;;24.80;66.60;;;;;;5090502;28;19915;-68
2022/07/05 14:00:53;;;;;;;;;;;25.00;67.30;;;;;;5090364;28;19956;-68
2022/07/05 14:03:19;;;;;;;;;;;25.20;67.40;;;;;;5089661;28;19920;-68
2022/07/05 14:05:44;;;;;;;;;;;25.40;65.60;;;;;;5090081;28;20283;-68
2022/07/05 14:08:12;;;;;;;;;;;25.30;65.80;;;;;;5089234;28;20286;-68
2022/07/05 14:10:38;;;;;;;;;;;25.20;65.90;;;;;;5095292;28;19924;-68
2022/07/05 14:13:03;;;;;;;;;;;25.30;66.40;;;;;;5110189;28;19916;-68
2022/07/05 14:15:29;;;;;;;;;;;25.70;62.90;;;;;;5101504;28;19912;-68
2022/07/05 14:17:55;;;;;;;;;;;25.60;63.20;;;;;;5088946;28;20340;-68
2022/07/05 14:20:20;;;;;;;;;;;26.00;63.00;;;;;;5103865;28;20267;-68
2022/07/05 14:22:46;;;;;;;;;;;26.10;63.10;;;;;;5100346;28;19916;-68
2022/07/05 14:25:11;;;;;;;;;;;26.20;63.20;;;;;;5096400;28;19915;-68
2022/07/05 14:27:38;;;;;;;;;;;26.00;63.40;;;;;;5078199;28;20007;-68
2022/07/05 14:30:04;;;;;;;;;;;25.80;64.00;;;;;;5078108;28;19912;-69
2022/07/05 14:32:29;;;;;;;;;;;25.90;63.80;;;;;;5094626;28;19969;-68
2022/07/05 14:34:55;;;;;;;;;;;25.70;64.10;;;;;;5076165;28;20382;-68
2022/07/05 14:37:22;;;;;;;;;;;25.60;65.00;;;;;;5094241;28;19909;-68
2022/07/05 14:39:49;;;;;;;;;;;25.90;64.60;;;;;;5094431;28;19962;-68